createdAt,value
2022-07-29T00:01:43.417Z,6.23
2022-07-29T00:04:11.512Z,6.57
2022-07-29T00:06:39.512Z,6.27
2022-07-29T00:09:07.793Z,6.03
2022-07-29T00:11:35.692Z,5.80
2022-07-29T00:14:03.573Z,5.63
2022-07-29T00:16:32.993Z,6.53
2022-07-29T00:19:02.448Z,6.17
2022-07-29T00:21:30.601Z,7.00
2022-07-29T00:23:58.539Z,6.30
2022-07-29T00:26:28.692Z,6.43
2022-07-29T00:29:17.399Z,5.97
2022-07-29T00:31:45.988Z,6.10
2022-07-29T00:34:27.870Z,6.50
2022-07-29T00:36:55.802Z,6.57
2022-07-29T00:39:23.770Z,6.73
2022-07-29T00:41:51.856Z,7.23
2022-07-29T00:44:21.050Z,6.83
2022-07-29T00:46:50.590Z,7.03
2022-07-29T00:49:18.768Z,7.50
2022-07-29T00:51:46.825Z,7.40
2022-07-29T00:54:15.779Z,7.00
2022-07-29T00:56:44.030Z,6.53
2022-07-29T00:59:11.949Z,6.70
2022-07-29T01:01:39.929Z,6.30
2022-07-29T01:04:09.357Z,6.33
2022-07-29T01:06:37.346Z,6.40
2022-07-29T01:09:05.278Z,7.10
2022-07-29T01:11:33.272Z,6.60
2022-07-29T01:14:01.240Z,7.03
2022-07-29T01:16:33.003Z,7.03
2022-07-29T01:19:04.710Z,7.70
2022-07-29T01:21:48.800Z,7.20
2022-07-29T01:24:31.594Z,7.83
2022-07-29T01:27:00.929Z,7.20
2022-07-29T01:29:37.834Z,7.23
2022-07-29T01:32:09.228Z,7.53
2022-07-29T01:34:58.403Z,7.70
2022-07-29T01:37:28.418Z,7.37
2022-07-29T01:39:57.644Z,7.60
2022-07-29T01:42:28.921Z,7.60
2022-07-29T01:44:59.474Z,7.67
2022-07-29T01:47:29.097Z,8.03
2022-07-29T01:49:57.222Z,7.80
2022-07-29T01:52:36.195Z,7.83
2022-07-29T01:55:08.760Z,8.33
2022-07-29T01:57:36.711Z,7.73
2022-07-29T02:00:06.974Z,8.40
2022-07-29T02:02:35.045Z,7.60
2022-07-29T02:05:03.085Z,8.67
2022-07-29T02:07:31.610Z,8.20
2022-07-29T02:09:59.573Z,8.00
2022-07-29T02:12:27.869Z,7.53
2022-07-29T02:14:56.093Z,8.40
2022-07-29T02:17:27.262Z,8.00
2022-07-29T02:19:55.677Z,8.27
2022-07-29T02:22:23.853Z,8.27
2022-07-29T02:24:52.332Z,8.20
2022-07-29T02:27:20.511Z,8.40
2022-07-29T02:29:48.718Z,8.60
2022-07-29T02:32:16.705Z,7.60
2022-07-29T02:34:56.583Z,7.80
2022-07-29T02:37:24.559Z,7.50
2022-07-29T02:39:52.667Z,7.57
2022-07-29T02:42:20.628Z,8.10
2022-07-29T02:44:48.600Z,7.63
2022-07-29T02:47:20.047Z,7.47
2022-07-29T02:49:53.479Z,7.43
2022-07-29T02:52:24.019Z,7.27
2022-07-29T02:54:55.946Z,7.37
2022-07-29T02:57:29.076Z,7.07
2022-07-29T02:59:57.089Z,7.40
2022-07-29T03:02:25.038Z,6.97
2022-07-29T03:04:54.483Z,7.30
2022-07-29T03:07:22.491Z,7.20
2022-07-29T03:09:50.479Z,7.37
2022-07-29T03:12:18.434Z,7.50
2022-07-29T03:14:47.210Z,7.37
2022-07-29T03:17:15.163Z,7.60
2022-07-29T03:19:43.093Z,7.73
2022-07-29T03:22:12.541Z,7.30
2022-07-29T03:24:40.485Z,7.70
2022-07-29T03:27:08.403Z,7.73
2022-07-29T03:29:36.386Z,7.57
2022-07-29T03:32:07.368Z,7.73
2022-07-29T03:34:36.581Z,7.00
2022-07-29T03:37:04.541Z,7.27
2022-07-29T03:39:35.722Z,7.07
2022-07-29T03:42:03.685Z,7.17
2022-07-29T03:44:31.868Z,7.13
2022-07-29T03:47:00.895Z,7.50
2022-07-29T03:49:29.011Z,7.60
2022-07-29T03:51:57.208Z,7.50
2022-07-29T03:54:25.146Z,7.53
2022-07-29T03:56:54.467Z,7.70
2022-07-29T03:59:22.561Z,7.70
2022-07-29T04:01:50.570Z,7.30
2022-07-29T04:04:19.107Z,7.67
2022-07-29T04:06:48.160Z,7.17
2022-07-29T04:09:17.986Z,6.97
2022-07-29T04:11:59.843Z,7.33
2022-07-29T04:14:33.209Z,7.33
2022-07-29T04:17:01.451Z,7.67
2022-07-29T04:19:29.537Z,7.83
2022-07-29T04:21:57.670Z,7.17
2022-07-29T04:24:25.838Z,8.07
2022-07-29T04:26:54.048Z,7.37
2022-07-29T04:29:21.993Z,7.50
2022-07-29T04:31:51.338Z,8.20
2022-07-29T04:34:19.964Z,7.70
2022-07-29T04:36:48.154Z,7.37
2022-07-29T04:39:22.192Z,7.43
2022-07-29T04:41:51.206Z,7.30
2022-07-29T04:44:21.781Z,6.87
2022-07-29T04:46:58.739Z,7.23
2022-07-29T04:49:40.363Z,7.33
2022-07-29T04:52:08.607Z,6.97
2022-07-29T04:54:36.788Z,7.77
2022-07-29T04:57:12.777Z,7.13
2022-07-29T04:59:40.847Z,6.60
2022-07-29T05:02:10.358Z,6.63
2022-07-29T05:04:38.427Z,6.80
2022-07-29T05:07:06.409Z,6.43
2022-07-29T05:09:34.414Z,6.93
2022-07-29T05:12:02.798Z,11.23
2022-07-29T05:14:30.703Z,6.60
2022-07-29T05:16:58.771Z,6.93
2022-07-29T05:22:33.551Z,6.23
2022-07-29T05:25:05.523Z,6.30
2022-07-29T05:27:37.266Z,6.03
2022-07-29T05:30:06.078Z,6.13
2022-07-29T05:32:34.133Z,6.23
2022-07-29T05:35:03.493Z,6.63
2022-07-29T05:40:21.284Z,6.23
2022-07-29T05:43:08.076Z,6.00
2022-07-29T05:45:36.148Z,6.50
2022-07-29T05:48:18.091Z,5.97
2022-07-29T05:50:47.399Z,6.63
2022-07-29T05:53:19.844Z,5.73
2022-07-29T05:55:49.012Z,6.50
2022-07-29T05:58:17.048Z,6.83
2022-07-29T06:00:45.151Z,6.70
2022-07-29T06:03:13.513Z,6.83
2022-07-29T06:05:41.513Z,7.30
2022-07-29T06:08:10.894Z,6.77
2022-07-29T06:10:48.335Z,7.33
2022-07-29T06:13:17.069Z,8.37
2022-07-29T06:15:45.168Z,7.67
2022-07-29T06:18:14.375Z,7.80
2022-07-29T06:20:48.177Z,7.87
2022-07-29T06:23:17.538Z,8.43
2022-07-29T06:26:06.630Z,7.87
2022-07-29T06:28:34.778Z,8.27
2022-07-29T06:31:02.955Z,8.53
2022-07-29T06:33:31.103Z,8.37
2022-07-29T06:35:59.161Z,8.87
2022-07-29T06:38:33.930Z,8.77
2022-07-29T06:41:10.928Z,7.87
2022-07-29T06:43:50.557Z,8.53
2022-07-29T06:46:19.593Z,9.47
2022-07-29T06:48:48.386Z,8.70
2022-07-29T06:51:22.166Z,10.00
2022-07-29T06:53:59.525Z,9.53
2022-07-29T06:56:31.589Z,9.97
2022-07-29T06:59:02.218Z,9.33
2022-07-29T07:01:30.439Z,10.90
2022-07-29T07:03:58.506Z,10.33
2022-07-29T07:06:26.530Z,10.43
2022-07-29T07:08:55.960Z,10.00
2022-07-29T07:11:23.915Z,10.80
2022-07-29T07:14:07.761Z,11.10
2022-07-29T07:16:54.559Z,11.00
2022-07-29T07:19:22.713Z,11.33
2022-07-29T07:21:50.751Z,11.60
2022-07-29T07:24:20.064Z,12.20
2022-07-29T07:26:48.191Z,12.23
2022-07-29T07:29:31.978Z,13.00
2022-07-29T07:32:03.132Z,13.27
2022-07-29T07:34:31.539Z,14.10
2022-07-29T07:36:59.499Z,13.70
2022-07-29T07:39:28.870Z,14.87
2022-07-29T07:42:11.074Z,14.83
2022-07-29T07:44:57.314Z,14.93
2022-07-29T07:47:50.631Z,15.07
2022-07-29T07:50:19.548Z,15.10
2022-07-29T07:52:51.328Z,16.17
2022-07-29T07:55:20.802Z,15.03
2022-07-29T07:58:01.921Z,14.88
2022-07-29T08:00:29.943Z,14.57
2022-07-29T08:02:57.900Z,15.63
2022-07-29T08:05:25.859Z,15.43
2022-07-29T08:07:53.855Z,15.47
2022-07-29T08:10:37.052Z,15.00
2022-07-29T08:13:05.510Z,14.83
2022-07-29T08:16:31.841Z,15.03
2022-07-29T08:18:52.767Z,13.67
2022-07-29T08:22:12.819Z,14.47
2022-07-29T08:24:53.204Z,14.73
2022-07-29T08:27:45.262Z,12.50
2022-07-29T08:30:13.471Z,12.02
2022-07-29T08:35:36.371Z,11.73
2022-07-29T08:38:39.313Z,11.10
2022-07-29T08:41:07.300Z,11.10
2022-07-29T08:43:41.934Z,11.30
2022-07-29T08:46:15.493Z,9.90
2022-07-29T08:48:43.525Z,9.70
2022-07-29T08:51:14.321Z,10.68
2022-07-29T08:53:42.781Z,9.00
2022-07-29T08:56:13.459Z,11.48
2022-07-29T08:59:11.661Z,8.90
2022-07-29T09:01:47.411Z,8.70
2022-07-29T09:04:15.433Z,7.30
2022-07-29T09:07:00.424Z,8.00
2022-07-29T09:09:55.691Z,7.03
2022-07-29T09:12:29.350Z,6.18
2022-07-29T09:15:11.350Z,6.72
2022-07-29T09:17:42.665Z,7.05
2022-07-29T09:20:26.166Z,6.05
2022-07-29T09:23:08.403Z,6.43
2022-07-29T09:25:49.452Z,6.70
2022-07-29T09:28:18.549Z,6.93
2022-07-29T09:31:17.018Z,6.15
2022-07-29T09:33:45.140Z,6.30
2022-07-29T09:36:32.027Z,6.90
2022-07-29T09:39:00.943Z,5.78
2022-07-29T09:41:42.997Z,6.10
2022-07-29T09:47:03.631Z,5.38
2022-07-29T09:49:42.597Z,4.72
2022-07-29T09:52:12.169Z,5.28
2022-07-29T09:54:55.275Z,5.55
2022-07-29T09:57:31.262Z,4.68
2022-07-29T10:00:00.576Z,4.10
2022-07-29T10:02:46.310Z,4.20
2022-07-29T10:05:22.047Z,3.97
2022-07-29T10:08:25.074Z,4.18
2022-07-29T10:11:13.945Z,4.38
2022-07-29T10:13:58.397Z,3.58
2022-07-29T10:16:28.234Z,3.50
2022-07-29T10:19:13.450Z,3.60
2022-07-29T10:21:44.214Z,4.10
2022-07-29T10:24:21.221Z,3.25
2022-07-29T10:26:49.181Z,3.67
2022-07-29T10:29:17.131Z,3.40
2022-07-29T10:31:49.537Z,3.88
2022-07-29T10:34:22.437Z,3.92
2022-07-29T10:37:09.040Z,3.42
2022-07-29T10:39:49.702Z,3.50
2022-07-29T10:42:20.372Z,3.13
2022-07-29T10:45:01.468Z,3.10
2022-07-29T10:47:38.212Z,2.80
2022-07-29T10:50:11.672Z,2.60
2022-07-29T10:52:58.579Z,2.83
2022-07-29T10:55:48.538Z,3.17
2022-07-29T10:59:04.509Z,3.17
2022-07-29T11:02:35.506Z,3.35
2022-07-29T11:05:02.217Z,2.53
2022-07-29T11:07:41.611Z,2.70
2022-07-29T11:14:10.410Z,2.92
2022-07-29T11:17:08.187Z,2.55
2022-07-29T11:19:40.318Z,2.80
2022-07-29T11:22:43.136Z,2.72
2022-07-29T11:25:42.927Z,2.60
2022-07-29T11:28:58.546Z,2.33
2022-07-29T11:32:25.684Z,2.75
2022-07-29T11:35:17.508Z,2.60
2022-07-29T11:38:29.289Z,2.58
2022-07-29T11:41:21.873Z,2.60
2022-07-29T11:43:50.867Z,2.58
2022-07-29T11:46:24.960Z,2.70
2022-07-29T11:48:53.237Z,2.65
2022-07-29T11:51:32.910Z,2.70
2022-07-29T11:54:27.431Z,2.47
2022-07-29T11:57:22.019Z,3.10
2022-07-29T11:59:50.825Z,2.65
2022-07-29T12:02:37.642Z,2.50
2022-07-29T12:05:10.717Z,2.53
2022-07-29T12:10:30.461Z,2.53
2022-07-29T12:15:46.827Z,2.65
2022-07-29T12:18:19.554Z,3.00
2022-07-29T12:20:58.446Z,3.33
2022-07-29T12:23:29.424Z,2.60
2022-07-29T12:26:07.547Z,2.67
2022-07-29T12:29:33.771Z,2.70
2022-07-29T12:35:23.251Z,2.45
2022-07-29T12:37:52.620Z,2.38
2022-07-29T12:40:20.603Z,2.17
2022-07-29T12:43:11.379Z,2.42
2022-07-29T12:45:58.191Z,2.47
2022-07-29T12:48:36.186Z,2.70
2022-07-29T12:51:04.928Z,2.95
2022-07-29T12:53:32.927Z,2.70
2022-07-29T12:56:08.054Z,2.40
2022-07-29T12:59:23.598Z,2.42
2022-07-29T13:05:13.664Z,2.65
2022-07-29T13:07:54.951Z,2.50
2022-07-29T13:10:25.797Z,2.75
2022-07-29T13:13:07.092Z,2.60
2022-07-29T13:15:36.574Z,2.60
2022-07-29T13:18:42.961Z,3.00
2022-07-29T13:21:14.122Z,2.80
2022-07-29T13:23:42.189Z,2.70
2022-07-29T13:26:27.249Z,2.83
2022-07-29T13:28:55.644Z,2.70
2022-07-29T13:31:25.157Z,2.67
2022-07-29T13:33:53.094Z,2.80
2022-07-29T13:39:32.289Z,2.63
2022-07-29T13:42:00.818Z,2.30
2022-07-29T13:44:29.099Z,2.10
2022-07-29T13:47:17.170Z,2.40
2022-07-29T13:49:48.266Z,1.98
2022-07-29T13:52:16.552Z,2.20
2022-07-29T13:54:44.520Z,2.25
2022-07-29T13:57:12.546Z,2.17
2022-07-29T13:59:40.504Z,2.10
2022-07-29T14:02:09.965Z,1.98
2022-07-29T14:04:39.673Z,2.10
2022-07-29T14:07:07.878Z,2.40
2022-07-29T14:09:41.541Z,2.17
2022-07-29T14:12:12.729Z,2.15
2022-07-29T14:14:40.735Z,2.05
2022-07-29T14:17:10.351Z,2.20
2022-07-29T14:19:39.102Z,2.42
2022-07-29T14:22:07.388Z,3.17
2022-07-29T14:24:37.130Z,1.80
2022-07-29T14:27:05.719Z,1.80
2022-07-29T14:29:37.693Z,1.80
2022-07-29T14:32:07.314Z,1.52
2022-07-29T14:34:36.822Z,1.70
2022-07-29T14:37:06.314Z,1.90
2022-07-29T14:39:36.925Z,2.53
2022-07-29T14:42:07.749Z,2.08
2022-07-29T14:44:35.861Z,1.98
2022-07-29T14:47:07.773Z,1.73
2022-07-29T14:49:37.511Z,1.98
2022-07-29T14:52:05.989Z,1.90
2022-07-29T14:54:34.021Z,1.95
2022-07-29T14:57:01.970Z,1.90
2022-07-29T14:59:49.446Z,3.42
2022-07-29T15:02:17.427Z,1.92
2022-07-29T15:04:55.635Z,2.45
2022-07-29T15:07:23.832Z,2.63
2022-07-29T15:09:51.779Z,2.25
2022-07-29T15:12:19.815Z,3.00
2022-07-29T15:14:47.761Z,2.55
2022-07-29T15:17:15.782Z,2.20
2022-07-29T15:19:45.042Z,2.30
2022-07-29T15:22:14.520Z,2.40
2022-07-29T15:24:42.455Z,2.30
2022-07-29T15:27:14.969Z,2.47
2022-07-29T15:29:43.210Z,2.38
2022-07-29T15:32:11.274Z,2.40
2022-07-29T15:34:39.279Z,2.63
2022-07-29T15:37:07.242Z,2.25
2022-07-29T15:39:36.544Z,2.50
2022-07-29T15:42:04.853Z,2.50
2022-07-29T15:44:32.942Z,2.40
2022-07-29T15:47:07.416Z,2.63
2022-07-29T15:49:48.700Z,2.42
2022-07-29T15:52:18.214Z,2.47
2022-07-29T15:54:51.446Z,2.20
2022-07-29T15:57:19.414Z,2.50
2022-07-29T15:59:47.352Z,2.33
2022-07-29T16:02:43.547Z,2.20
2022-07-29T16:08:39.479Z,2.60
2022-07-29T16:11:08.928Z,2.60
2022-07-29T16:13:36.913Z,1.85
2022-07-29T16:16:05.159Z,2.00
2022-07-29T16:18:33.076Z,1.90
2022-07-29T16:21:01.293Z,1.92
2022-07-29T16:23:29.479Z,2.00
2022-07-29T16:26:01.286Z,2.25
2022-07-29T16:28:31.439Z,1.92
2022-07-29T16:30:59.596Z,2.00
2022-07-29T16:33:28.307Z,2.45
2022-07-29T16:36:16.234Z,2.30
2022-07-29T16:38:46.980Z,2.20
2022-07-29T16:41:24.922Z,2.08
2022-07-29T16:43:55.321Z,1.90
2022-07-29T16:46:23.335Z,1.98
2022-07-29T16:48:53.931Z,2.17
2022-07-29T16:51:25.305Z,2.15
2022-07-29T16:53:53.262Z,2.15
2022-07-29T16:56:21.387Z,2.55
2022-07-29T16:58:49.429Z,2.03
2022-07-29T17:01:19.883Z,2.30
2022-07-29T17:04:04.844Z,2.30
2022-07-29T17:06:35.112Z,2.30
2022-07-29T17:09:03.314Z,2.35
2022-07-29T17:11:52.658Z,2.30
2022-07-29T17:14:24.337Z,1.92
2022-07-29T17:17:01.254Z,2.35
2022-07-29T17:19:31.009Z,2.05
2022-07-29T17:22:07.026Z,2.30
2022-07-29T17:24:41.433Z,1.98
2022-07-29T17:27:09.841Z,1.98
2022-07-29T17:29:38.705Z,2.00
2022-07-29T17:32:09.082Z,1.95
2022-07-29T17:34:37.221Z,2.15
2022-07-29T17:37:05.251Z,2.10
2022-07-29T17:39:35.075Z,2.20
2022-07-29T17:42:03.131Z,2.38
2022-07-29T17:44:31.082Z,2.05
2022-07-29T17:47:06.412Z,2.08
2022-07-29T17:49:52.298Z,2.38
2022-07-29T17:52:20.591Z,2.25
2022-07-29T17:54:49.326Z,2.05
2022-07-29T17:57:17.305Z,3.35
2022-07-29T17:59:45.270Z,3.35
2022-07-29T18:02:14.428Z,3.00
2022-07-29T18:04:43.833Z,2.50
2022-07-29T18:07:12.025Z,2.65
2022-07-29T18:09:40.150Z,2.90
2022-07-29T18:12:09.161Z,2.53
2022-07-29T18:14:37.273Z,2.70
2022-07-29T18:17:06.495Z,3.20
2022-07-29T18:19:34.500Z,3.28
2022-07-29T18:22:05.347Z,3.03
2022-07-29T18:24:33.617Z,3.10
2022-07-29T18:27:01.957Z,2.70
2022-07-29T18:29:30.437Z,3.13
2022-07-29T18:31:59.903Z,2.88
2022-07-29T18:34:28.170Z,3.20
2022-07-29T18:36:56.366Z,3.13
2022-07-29T18:39:25.996Z,2.97
2022-07-29T18:41:53.901Z,3.13
2022-07-29T18:44:22.884Z,2.70
2022-07-29T18:46:51.474Z,3.42
2022-07-29T18:49:19.985Z,3.42
2022-07-29T18:51:48.114Z,4.63
2022-07-29T18:54:17.379Z,3.80
2022-07-29T18:56:46.894Z,3.95
2022-07-29T18:59:23.437Z,3.33
2022-07-29T19:01:51.371Z,3.47
2022-07-29T19:04:19.902Z,3.60
2022-07-29T19:06:47.864Z,4.88
2022-07-29T19:09:17.268Z,4.40
2022-07-29T19:11:46.653Z,4.40
2022-07-29T19:14:14.647Z,3.80
2022-07-29T19:16:45.660Z,4.45
2022-07-29T19:19:17.426Z,4.30
2022-07-29T19:21:47.054Z,4.05
2022-07-29T19:24:15.865Z,3.90
2022-07-29T19:26:46.828Z,4.20
2022-07-29T19:29:16.311Z,4.40
2022-07-29T19:31:44.538Z,6.72
2022-07-29T19:34:12.689Z,4.25
2022-07-29T19:36:41.829Z,3.70
2022-07-29T19:39:09.816Z,4.10
2022-07-29T19:41:37.973Z,3.92
2022-07-29T19:44:06.141Z,3.95
2022-07-29T19:46:35.578Z,4.07
2022-07-29T19:49:08.827Z,4.00
2022-07-29T19:51:37.208Z,4.03
2022-07-29T19:54:05.944Z,4.25
2022-07-29T19:56:33.983Z,3.90
2022-07-29T19:59:02.422Z,5.25
2022-07-29T20:01:33.094Z,4.50
2022-07-29T20:04:02.538Z,4.22
2022-07-29T20:06:30.572Z,4.13
2022-07-29T20:08:59.122Z,4.07
2022-07-29T20:11:29.701Z,4.00
2022-07-29T20:13:57.766Z,4.28
2022-07-29T20:16:25.785Z,4.13
2022-07-29T20:18:53.783Z,4.32
2022-07-29T20:21:23.103Z,4.45
2022-07-29T20:23:51.086Z,4.55
2022-07-29T20:26:19.110Z,5.00
2022-07-29T20:28:49.471Z,4.78
2022-07-29T20:31:18.817Z,4.85
2022-07-29T20:33:46.868Z,4.80
2022-07-29T20:36:14.970Z,5.20
2022-07-29T20:38:44.353Z,5.55
2022-07-29T20:41:12.285Z,5.40
2022-07-29T20:43:40.231Z,5.60
2022-07-29T20:46:08.303Z,5.95
2022-07-29T20:48:36.294Z,6.10
2022-07-29T20:51:04.425Z,6.03
2022-07-29T20:53:33.760Z,5.95
2022-07-29T20:56:03.146Z,5.65
2022-07-29T20:58:32.627Z,5.55
2022-07-29T21:01:00.636Z,5.45
2022-07-29T21:03:28.589Z,4.35
2022-07-29T21:05:56.552Z,4.32
2022-07-29T21:08:24.616Z,3.90
2022-07-29T21:10:52.797Z,4.00
2022-07-29T21:13:33.001Z,3.75
2022-07-29T21:16:04.318Z,4.72
2022-07-29T21:21:36.549Z,4.55
2022-07-29T21:24:04.866Z,4.25
2022-07-29T21:26:32.847Z,4.38
2022-07-29T21:29:08.823Z,4.95
2022-07-29T21:31:36.812Z,5.43
2022-07-29T21:34:04.763Z,5.55
2022-07-29T21:36:49.040Z,4.75
2022-07-29T21:39:17.155Z,4.40
2022-07-29T21:42:03.075Z,4.68
2022-07-29T21:44:32.402Z,5.30
2022-07-29T21:47:00.634Z,4.97
2022-07-29T21:49:28.881Z,4.65
2022-07-29T21:51:56.852Z,4.50
2022-07-29T21:54:24.784Z,4.32
2022-07-29T21:57:27.752Z,4.45
2022-07-29T22:00:00.840Z,4.50
2022-07-29T22:02:30.770Z,4.65
2022-07-29T22:04:58.714Z,5.20
2022-07-29T22:07:56.453Z,5.45
2022-07-29T22:10:14.561Z,5.93
2022-07-29T22:12:42.528Z,5.20
2022-07-29T22:15:12.260Z,6.57
2022-07-29T22:17:42.270Z,5.50
2022-07-29T22:20:11.081Z,5.67
2022-07-29T22:22:39.103Z,5.60
2022-07-29T22:25:08.149Z,5.67
2022-07-29T22:27:36.106Z,5.70
2022-07-29T22:30:04.289Z,5.72
2022-07-29T22:32:33.661Z,5.73
2022-07-29T22:35:01.583Z,5.70
2022-07-29T22:37:29.520Z,6.17
2022-07-29T22:39:57.527Z,6.17
2022-07-29T22:42:25.587Z,5.83
2022-07-29T22:44:53.569Z,5.70
2022-07-29T22:47:46.653Z,5.40
2022-07-29T22:50:11.262Z,5.70
2022-07-29T22:52:39.223Z,6.07
2022-07-29T22:55:07.973Z,6.50
2022-07-29T22:57:35.912Z,6.27
2022-07-29T23:00:04.001Z,6.57
2022-07-29T23:02:31.904Z,6.60
2022-07-29T23:04:59.807Z,6.23
2022-07-29T23:07:29.147Z,6.30
2022-07-29T23:09:57.077Z,6.00
2022-07-29T23:12:25.036Z,6.50
2022-07-29T23:14:52.964Z,6.37
2022-07-29T23:17:20.955Z,6.60
2022-07-29T23:19:48.949Z,7.00
2022-07-29T23:22:16.921Z,7.03
2022-07-29T23:24:47.978Z,7.03
2022-07-29T23:27:15.896Z,7.50
2022-07-29T23:29:43.829Z,7.53
2022-07-29T23:32:32.902Z,7.60
2022-07-29T23:35:00.810Z,6.67
2022-07-29T23:37:28.853Z,7.43
2022-07-29T23:39:58.206Z,7.17
2022-07-29T23:42:26.225Z,7.40
2022-07-29T23:44:54.097Z,7.43
2022-07-29T23:47:22.113Z,7.57
2022-07-29T23:49:50.302Z,7.53
2022-07-29T23:52:18.269Z,8.17
2022-07-29T23:54:46.200Z,7.67
2022-07-29T23:57:15.617Z,8.03
2022-07-29T23:59:43.589Z,8.13
